sensor_id;sensor_type;location;lat;lon;timestamp;P1;durP1;ratioP1;P2;durP2;ratioP2
16093;SDS011;8151;47.824;12.092;2023-12-20T00:00:13;11.23;;;2.80;;
16093;SDS011;8151;47.824;12.092;2023-12-20T00:02:42;4.90;;;2.97;;
16093;SDS011;8151;47.824;12.092;2023-12-20T00:05:13;4.60;;;2.70;;
16093;SDS011;8151;47.824;12.092;2023-12-20T00:07:42;5.20;;;3.00;;
16093;SDS011;8151;47.824;12.092;2023-12-20T00:10:11;4.77;;;2.77;;
16093;SDS011;8151;47.824;12.092;2023-12-20T00:12:40;4.13;;;2.70;;
16093;SDS011;8151;47.824;12.092;2023-12-20T00:15:10;3.57;;;2.70;;
16093;SDS011;8151;47.824;12.092;2023-12-20T00:17:38;4.30;;;3.20;;
16093;SDS011;8151;47.824;12.092;2023-12-20T00:20:07;3.90;;;2.80;;
16093;SDS011;8151;47.824;12.092;2023-12-20T00:22:37;3.90;;;2.80;;
16093;SDS011;8151;47.824;12.092;2023-12-20T00:25:05;5.13;;;3.23;;
16093;SDS011;8151;47.824;12.092;2023-12-20T00:27:35;5.10;;;2.93;;
16093;SDS011;8151;47.824;12.092;2023-12-20T00:30:04;4.30;;;2.83;;
16093;SDS011;8151;47.824;12.092;2023-12-20T00:32:34;4.90;;;3.30;;
16093;SDS011;8151;47.824;12.092;2023-12-20T00:35:03;5.10;;;2.70;;
16093;SDS011;8151;47.824;12.092;2023-12-20T00:37:32;2.87;;;2.57;;
16093;SDS011;8151;47.824;12.092;2023-12-20T00:40:00;4.37;;;2.77;;
16093;SDS011;8151;47.824;12.092;2023-12-20T00:42:29;4.37;;;2.80;;
16093;SDS011;8151;47.824;12.092;2023-12-20T00:44:58;4.57;;;2.87;;
16093;SDS011;8151;47.824;12.092;2023-12-20T00:47:26;5.87;;;3.10;;
16093;SDS011;8151;47.824;12.092;2023-12-20T00:49:56;4.03;;;2.83;;
16093;SDS011;8151;47.824;12.092;2023-12-20T00:52:25;7.50;;;3.07;;
16093;SDS011;8151;47.824;12.092;2023-12-20T00:54:53;3.93;;;2.73;;
16093;SDS011;8151;47.824;12.092;2023-12-20T00:57:22;5.07;;;3.10;;
16093;SDS011;8151;47.824;12.092;2023-12-20T00:59:50;3.37;;;2.53;;
16093;SDS011;8151;47.824;12.092;2023-12-20T01:02:19;3.97;;;2.83;;
16093;SDS011;8151;47.824;12.092;2023-12-20T01:04:47;4.93;;;2.67;;
16093;SDS011;8151;47.824;12.092;2023-12-20T01:07:17;5.80;;;3.20;;
16093;SDS011;8151;47.824;12.092;2023-12-20T01:09:45;4.20;;;2.87;;
16093;SDS011;8151;47.824;12.092;2023-12-20T01:12:14;4.40;;;2.80;;
16093;SDS011;8151;47.824;12.092;2023-12-20T01:14:42;4.93;;;2.73;;
16093;SDS011;8151;47.824;12.092;2023-12-20T01:17:11;9.80;;;2.70;;
16093;SDS011;8151;47.824;12.092;2023-12-20T01:19:40;3.37;;;2.50;;
16093;SDS011;8151;47.824;12.092;2023-12-20T01:22:08;5.60;;;3.10;;
16093;SDS011;8151;47.824;12.092;2023-12-20T01:24:38;4.27;;;2.83;;
16093;SDS011;8151;47.824;12.092;2023-12-20T01:27:06;5.27;;;2.80;;
16093;SDS011;8151;47.824;12.092;2023-12-20T01:29:35;5.90;;;2.63;;
16093;SDS011;8151;47.824;12.092;2023-12-20T01:32:04;4.50;;;2.53;;
16093;SDS011;8151;47.824;12.092;2023-12-20T01:34:33;3.23;;;2.43;;
16093;SDS011;8151;47.824;12.092;2023-12-20T01:37:01;3.87;;;2.53;;
16093;SDS011;8151;47.824;12.092;2023-12-20T01:39:31;6.50;;;3.10;;
16093;SDS011;8151;47.824;12.092;2023-12-20T01:42:00;4.00;;;2.80;;
16093;SDS011;8151;47.824;12.092;2023-12-20T01:44:29;3.93;;;2.70;;
16093;SDS011;8151;47.824;12.092;2023-12-20T01:46:57;5.57;;;2.80;;
16093;SDS011;8151;47.824;12.092;2023-12-20T01:49:26;2.97;;;2.37;;
16093;SDS011;8151;47.824;12.092;2023-12-20T01:51:55;3.43;;;2.43;;
16093;SDS011;8151;47.824;12.092;2023-12-20T01:54:23;4.00;;;2.70;;
16093;SDS011;8151;47.824;12.092;2023-12-20T01:56:52;3.60;;;2.53;;
16093;SDS011;8151;47.824;12.092;2023-12-20T01:59:22;3.57;;;2.50;;
16093;SDS011;8151;47.824;12.092;2023-12-20T02:01:50;4.40;;;2.67;;
16093;SDS011;8151;47.824;12.092;2023-12-20T02:04:19;4.77;;;2.40;;
16093;SDS011;8151;47.824;12.092;2023-12-20T02:06:48;3.37;;;2.60;;
16093;SDS011;8151;47.824;12.092;2023-12-20T02:09:20;4.80;;;2.50;;
16093;SDS011;8151;47.824;12.092;2023-12-20T02:11:50;2.33;;;2.13;;
16093;SDS011;8151;47.824;12.092;2023-12-20T02:14:18;6.03;;;2.30;;
16093;SDS011;8151;47.824;12.092;2023-12-20T02:16:48;3.17;;;2.30;;
16093;SDS011;8151;47.824;12.092;2023-12-20T02:19:16;2.87;;;2.30;;
16093;SDS011;8151;47.824;12.092;2023-12-20T02:21:48;4.43;;;2.40;;
16093;SDS011;8151;47.824;12.092;2023-12-20T02:24:17;2.60;;;2.07;;
16093;SDS011;8151;47.824;12.092;2023-12-20T02:26:45;2.70;;;2.33;;
16093;SDS011;8151;47.824;12.092;2023-12-20T02:29:14;3.03;;;2.43;;
16093;SDS011;8151;47.824;12.092;2023-12-20T02:31:42;3.27;;;2.33;;
16093;SDS011;8151;47.824;12.092;2023-12-20T02:34:11;2.97;;;2.60;;
16093;SDS011;8151;47.824;12.092;2023-12-20T02:36:39;5.03;;;2.67;;
16093;SDS011;8151;47.824;12.092;2023-12-20T02:39:09;2.90;;;2.50;;
16093;SDS011;8151;47.824;12.092;2023-12-20T02:41:37;3.43;;;2.40;;
16093;SDS011;8151;47.824;12.092;2023-12-20T02:44:06;4.27;;;2.80;;
16093;SDS011;8151;47.824;12.092;2023-12-20T02:46:34;2.77;;;2.23;;
16093;SDS011;8151;47.824;12.092;2023-12-20T02:49:03;5.70;;;3.03;;
16093;SDS011;8151;47.824;12.092;2023-12-20T02:51:31;4.97;;;2.67;;
16093;SDS011;8151;47.824;12.092;2023-12-20T02:54:00;3.40;;;2.63;;
16093;SDS011;8151;47.824;12.092;2023-12-20T02:56:29;3.03;;;2.40;;
16093;SDS011;8151;47.824;12.092;2023-12-20T02:58:58;3.53;;;2.60;;
16093;SDS011;8151;47.824;12.092;2023-12-20T03:01:26;5.33;;;2.70;;
16093;SDS011;8151;47.824;12.092;2023-12-20T03:03:56;4.33;;;2.93;;
16093;SDS011;8151;47.824;12.092;2023-12-20T03:06:25;3.43;;;2.30;;
16093;SDS011;8151;47.824;12.092;2023-12-20T03:08:53;3.67;;;2.53;;
16093;SDS011;8151;47.824;12.092;2023-12-20T03:11:22;4.33;;;3.10;;
16093;SDS011;8151;47.824;12.092;2023-12-20T03:13:56;2.80;;;2.40;;
16093;SDS011;8151;47.824;12.092;2023-12-20T03:16:24;4.03;;;2.83;;
16093;SDS011;8151;47.824;12.092;2023-12-20T03:18:53;4.47;;;2.50;;
16093;SDS011;8151;47.824;12.092;2023-12-20T03:21:22;5.17;;;2.53;;
16093;SDS011;8151;47.824;12.092;2023-12-20T03:23:50;2.67;;;2.40;;
16093;SDS011;8151;47.824;12.092;2023-12-20T03:26:19;3.47;;;2.33;;
16093;SDS011;8151;47.824;12.092;2023-12-20T03:28:49;5.70;;;2.60;;
16093;SDS011;8151;47.824;12.092;2023-12-20T03:31:18;3.20;;;2.37;;
16093;SDS011;8151;47.824;12.092;2023-12-20T03:33:48;3.90;;;2.87;;
16093;SDS011;8151;47.824;12.092;2023-12-20T03:36:17;2.50;;;2.30;;
16093;SDS011;8151;47.824;12.092;2023-12-20T03:38:46;2.93;;;2.27;;
16093;SDS011;8151;47.824;12.092;2023-12-20T03:41:14;3.57;;;2.57;;
16093;SDS011;8151;47.824;12.092;2023-12-20T03:43:43;4.50;;;2.80;;
16093;SDS011;8151;47.824;12.092;2023-12-20T03:46:11;3.87;;;2.57;;
16093;SDS011;8151;47.824;12.092;2023-12-20T03:48:41;4.10;;;2.43;;
16093;SDS011;8151;47.824;12.092;2023-12-20T03:51:10;2.43;;;2.13;;
16093;SDS011;8151;47.824;12.092;2023-12-20T03:53:38;2.20;;;2.00;;
16093;SDS011;8151;47.824;12.092;2023-12-20T03:56:07;2.53;;;2.13;;
16093;SDS011;8151;47.824;12.092;2023-12-20T03:58:36;2.23;;;2.00;;
16093;SDS011;8151;47.824;12.092;2023-12-20T04:01:08;2.63;;;2.03;;
16093;SDS011;8151;47.824;12.092;2023-12-20T04:03:38;4.20;;;2.30;;
16093;SDS011;8151;47.824;12.092;2023-12-20T04:06:08;2.50;;;2.30;;
16093;SDS011;8151;47.824;12.092;2023-12-20T04:08:37;3.83;;;2.00;;
16093;SDS011;8151;47.824;12.092;2023-12-20T04:11:05;2.97;;;2.03;;
16093;SDS011;8151;47.824;12.092;2023-12-20T04:13:34;1.60;;;1.50;;
16093;SDS011;8151;47.824;12.092;2023-12-20T04:16:02;2.17;;;1.77;;
16093;SDS011;8151;47.824;12.092;2023-12-20T04:18:31;3.13;;;1.70;;
16093;SDS011;8151;47.824;12.092;2023-12-20T04:21:00;1.47;;;1.33;;
16093;SDS011;8151;47.824;12.092;2023-12-20T04:23:29;1.13;;;0.93;;
16093;SDS011;8151;47.824;12.092;2023-12-20T04:25:58;1.20;;;1.10;;
16093;SDS011;8151;47.824;12.092;2023-12-20T04:28:26;1.27;;;1.17;;
16093;SDS011;8151;47.824;12.092;2023-12-20T04:30:57;3.63;;;1.43;;
16093;SDS011;8151;47.824;12.092;2023-12-20T04:33:25;0.93;;;0.93;;
16093;SDS011;8151;47.824;12.092;2023-12-20T04:35:54;1.00;;;1.00;;
16093;SDS011;8151;47.824;12.092;2023-12-20T04:38:22;1.17;;;1.07;;
16093;SDS011;8151;47.824;12.092;2023-12-20T04:40:52;1.40;;;1.30;;
16093;SDS011;8151;47.824;12.092;2023-12-20T04:43:20;1.47;;;1.23;;
16093;SDS011;8151;47.824;12.092;2023-12-20T04:45:49;1.50;;;1.00;;
16093;SDS011;8151;47.824;12.092;2023-12-20T04:48:17;1.00;;;0.90;;
16093;SDS011;8151;47.824;12.092;2023-12-20T04:50:46;1.17;;;1.00;;
16093;SDS011;8151;47.824;12.092;2023-12-20T04:53:14;1.37;;;1.20;;
16093;SDS011;8151;47.824;12.092;2023-12-20T04:55:43;1.13;;;1.03;;
16093;SDS011;8151;47.824;12.092;2023-12-20T04:58:12;2.37;;;1.23;;
16093;SDS011;8151;47.824;12.092;2023-12-20T05:00:41;1.23;;;1.13;;
16093;SDS011;8151;47.824;12.092;2023-12-20T05:03:09;1.47;;;1.20;;
16093;SDS011;8151;47.824;12.092;2023-12-20T05:05:38;1.30;;;1.20;;
16093;SDS011;8151;47.824;12.092;2023-12-20T05:08:07;1.20;;;1.10;;
16093;SDS011;8151;47.824;12.092;2023-12-20T05:10:35;1.00;;;1.00;;
16093;SDS011;8151;47.824;12.092;2023-12-20T05:13:04;0.83;;;0.83;;
16093;SDS011;8151;47.824;12.092;2023-12-20T05:15:34;1.67;;;1.10;;
16093;SDS011;8151;47.824;12.092;2023-12-20T05:18:02;1.33;;;1.07;;
16093;SDS011;8151;47.824;12.092;2023-12-20T05:20:31;2.07;;;1.33;;
16093;SDS011;8151;47.824;12.092;2023-12-20T05:23:00;1.00;;;0.90;;
16093;SDS011;8151;47.824;12.092;2023-12-20T05:25:28;0.90;;;0.90;;
16093;SDS011;8151;47.824;12.092;2023-12-20T05:27:57;1.03;;;0.93;;
16093;SDS011;8151;47.824;12.092;2023-12-20T05:30:25;1.93;;;1.20;;
16093;SDS011;8151;47.824;12.092;2023-12-20T05:32:56;1.40;;;1.30;;
16093;SDS011;8151;47.824;12.092;2023-12-20T05:35:24;1.10;;;0.90;;
16093;SDS011;8151;47.824;12.092;2023-12-20T05:37:53;2.07;;;1.10;;
16093;SDS011;8151;47.824;12.092;2023-12-20T05:40:21;1.30;;;1.20;;
16093;SDS011;8151;47.824;12.092;2023-12-20T05:42:50;1.53;;;1.00;;
16093;SDS011;8151;47.824;12.092;2023-12-20T05:45:19;1.20;;;1.10;;
16093;SDS011;8151;47.824;12.092;2023-12-20T05:47:47;1.20;;;1.00;;
16093;SDS011;8151;47.824;12.092;2023-12-20T05:50:17;3.97;;;1.63;;
16093;SDS011;8151;47.824;12.092;2023-12-20T05:52:45;1.17;;;1.07;;
16093;SDS011;8151;47.824;12.092;2023-12-20T05:55:14;1.03;;;0.93;;
16093;SDS011;8151;47.824;12.092;2023-12-20T05:57:43;0.87;;;0.77;;
16093;SDS011;8151;47.824;12.092;2023-12-20T06:00:12;1.03;;;0.93;;
16093;SDS011;8151;47.824;12.092;2023-12-20T06:02:42;1.10;;;1.00;;
16093;SDS011;8151;47.824;12.092;2023-12-20T06:05:11;1.20;;;1.07;;
16093;SDS011;8151;47.824;12.092;2023-12-20T06:07:41;1.10;;;1.10;;
16093;SDS011;8151;47.824;12.092;2023-12-20T06:10:10;2.23;;;1.20;;
16093;SDS011;8151;47.824;12.092;2023-12-20T06:12:38;1.27;;;1.13;;
16093;SDS011;8151;47.824;12.092;2023-12-20T06:15:07;1.20;;;1.10;;
16093;SDS011;8151;47.824;12.092;2023-12-20T06:17:36;0.90;;;0.90;;
16093;SDS011;8151;47.824;12.092;2023-12-20T06:20:05;1.10;;;0.93;;
16093;SDS011;8151;47.824;12.092;2023-12-20T06:22:35;1.10;;;1.00;;
16093;SDS011;8151;47.824;12.092;2023-12-20T06:25:06;0.80;;;0.80;;
16093;SDS011;8151;47.824;12.092;2023-12-20T06:27:35;0.97;;;0.90;;
16093;SDS011;8151;47.824;12.092;2023-12-20T06:30:03;1.17;;;0.90;;
16093;SDS011;8151;47.824;12.092;2023-12-20T06:32:33;0.80;;;0.80;;
16093;SDS011;8151;47.824;12.092;2023-12-20T06:35:01;1.27;;;0.93;;
16093;SDS011;8151;47.824;12.092;2023-12-20T06:37:31;0.77;;;0.77;;
16093;SDS011;8151;47.824;12.092;2023-12-20T06:40:00;1.37;;;1.07;;
16093;SDS011;8151;47.824;12.092;2023-12-20T06:42:30;2.07;;;1.50;;
16093;SDS011;8151;47.824;12.092;2023-12-20T06:45:06;2.33;;;1.13;;
16093;SDS011;8151;47.824;12.092;2023-12-20T06:47:34;7.33;;;1.47;;
16093;SDS011;8151;47.824;12.092;2023-12-20T06:50:03;1.90;;;0.70;;
16093;SDS011;8151;47.824;12.092;2023-12-20T06:52:32;0.90;;;0.90;;
16093;SDS011;8151;47.824;12.092;2023-12-20T06:55:00;0.80;;;0.80;;
16093;SDS011;8151;47.824;12.092;2023-12-20T06:57:30;3.13;;;1.10;;
16093;SDS011;8151;47.824;12.092;2023-12-20T06:59:59;1.23;;;0.90;;
16093;SDS011;8151;47.824;12.092;2023-12-20T07:02:27;1.30;;;0.83;;
16093;SDS011;8151;47.824;12.092;2023-12-20T07:04:57;1.20;;;0.83;;
16093;SDS011;8151;47.824;12.092;2023-12-20T07:07:25;1.10;;;0.77;;
16093;SDS011;8151;47.824;12.092;2023-12-20T07:09:54;0.80;;;0.80;;
16093;SDS011;8151;47.824;12.092;2023-12-20T07:12:22;1.60;;;0.77;;
16093;SDS011;8151;47.824;12.092;2023-12-20T07:14:53;1.83;;;0.67;;
16093;SDS011;8151;47.824;12.092;2023-12-20T07:17:21;2.00;;;0.70;;
16093;SDS011;8151;47.824;12.092;2023-12-20T07:19:50;2.63;;;1.00;;
16093;SDS011;8151;47.824;12.092;2023-12-20T07:22:18;1.13;;;1.00;;
16093;SDS011;8151;47.824;12.092;2023-12-20T07:24:47;4.37;;;0.87;;
16093;SDS011;8151;47.824;12.092;2023-12-20T07:27:16;0.90;;;0.90;;
16093;SDS011;8151;47.824;12.092;2023-12-20T07:29:45;2.97;;;0.97;;
16093;SDS011;8151;47.824;12.092;2023-12-20T07:32:14;0.47;;;0.47;;
16093;SDS011;8151;47.824;12.092;2023-12-20T07:34:43;1.00;;;0.60;;
16093;SDS011;8151;47.824;12.092;2023-12-20T07:37:12;0.97;;;0.80;;
16093;SDS011;8151;47.824;12.092;2023-12-20T07:39:41;1.10;;;1.00;;
16093;SDS011;8151;47.824;12.092;2023-12-20T07:42:10;0.57;;;0.57;;
16093;SDS011;8151;47.824;12.092;2023-12-20T07:44:38;0.80;;;0.73;;
16093;SDS011;8151;47.824;12.092;2023-12-20T07:47:06;1.60;;;1.03;;
16093;SDS011;8151;47.824;12.092;2023-12-20T07:49:36;1.20;;;1.10;;
16093;SDS011;8151;47.824;12.092;2023-12-20T07:52:05;2.60;;;1.27;;
16093;SDS011;8151;47.824;12.092;2023-12-20T07:54:35;1.00;;;1.00;;
16093;SDS011;8151;47.824;12.092;2023-12-20T07:57:03;0.93;;;0.93;;
16093;SDS011;8151;47.824;12.092;2023-12-20T07:59:32;0.80;;;0.80;;
16093;SDS011;8151;47.824;12.092;2023-12-20T08:02:01;1.13;;;0.50;;
16093;SDS011;8151;47.824;12.092;2023-12-20T08:04:29;1.17;;;1.07;;
16093;SDS011;8151;47.824;12.092;2023-12-20T08:07:01;0.67;;;0.57;;
16093;SDS011;8151;47.824;12.092;2023-12-20T08:09:29;1.07;;;1.03;;
16093;SDS011;8151;47.824;12.092;2023-12-20T08:11:58;1.00;;;0.90;;
16093;SDS011;8151;47.824;12.092;2023-12-20T08:14:27;0.93;;;0.93;;
16093;SDS011;8151;47.824;12.092;2023-12-20T08:16:56;1.93;;;1.17;;
16093;SDS011;8151;47.824;12.092;2023-12-20T08:19:24;0.83;;;0.80;;
16093;SDS011;8151;47.824;12.092;2023-12-20T08:21:53;1.10;;;1.03;;
16093;SDS011;8151;47.824;12.092;2023-12-20T08:24:22;1.10;;;1.00;;
16093;SDS011;8151;47.824;12.092;2023-12-20T08:26:51;3.33;;;1.10;;
16093;SDS011;8151;47.824;12.092;2023-12-20T08:29:19;2.47;;;1.13;;
16093;SDS011;8151;47.824;12.092;2023-12-20T08:31:51;3.83;;;1.00;;
16093;SDS011;8151;47.824;12.092;2023-12-20T08:34:20;0.80;;;0.80;;
16093;SDS011;8151;47.824;12.092;2023-12-20T08:36:49;1.00;;;0.87;;
16093;SDS011;8151;47.824;12.092;2023-12-20T08:39:18;0.90;;;0.90;;
16093;SDS011;8151;47.824;12.092;2023-12-20T08:41:48;1.87;;;1.13;;
16093;SDS011;8151;47.824;12.092;2023-12-20T08:44:17;1.57;;;1.00;;
16093;SDS011;8151;47.824;12.092;2023-12-20T08:46:45;1.00;;;1.00;;
16093;SDS011;8151;47.824;12.092;2023-12-20T08:49:14;1.03;;;0.93;;
16093;SDS011;8151;47.824;12.092;2023-12-20T08:51:42;2.03;;;1.40;;
16093;SDS011;8151;47.824;12.092;2023-12-20T08:54:11;2.93;;;1.20;;
16093;SDS011;8151;47.824;12.092;2023-12-20T08:56:40;2.47;;;0.90;;
16093;SDS011;8151;47.824;12.092;2023-12-20T08:59:10;1.70;;;0.87;;
16093;SDS011;8151;47.824;12.092;2023-12-20T09:01:38;1.27;;;1.13;;
16093;SDS011;8151;47.824;12.092;2023-12-20T09:04:07;1.90;;;1.70;;
16093;SDS011;8151;47.824;12.092;2023-12-20T09:06:36;2.70;;;1.87;;
16093;SDS011;8151;47.824;12.092;2023-12-20T09:09:04;1.50;;;1.03;;
16093;SDS011;8151;47.824;12.092;2023-12-20T09:11:35;1.53;;;1.20;;
16093;SDS011;8151;47.824;12.092;2023-12-20T09:14:03;0.90;;;0.90;;
16093;SDS011;8151;47.824;12.092;2023-12-20T09:16:33;1.67;;;0.50;;
16093;SDS011;8151;47.824;12.092;2023-12-20T09:19:02;1.20;;;0.90;;
16093;SDS011;8151;47.824;12.092;2023-12-20T09:21:30;4.20;;;0.80;;
16093;SDS011;8151;47.824;12.092;2023-12-20T09:23:59;0.63;;;0.63;;
16093;SDS011;8151;47.824;12.092;2023-12-20T09:26:27;0.67;;;0.50;;
16093;SDS011;8151;47.824;12.092;2023-12-20T09:28:56;1.07;;;0.60;;
16093;SDS011;8151;47.824;12.092;2023-12-20T09:31:24;1.27;;;0.60;;
16093;SDS011;8151;47.824;12.092;2023-12-20T09:33:54;1.77;;;0.50;;
16093;SDS011;8151;47.824;12.092;2023-12-20T09:36:22;0.40;;;0.40;;
16093;SDS011;8151;47.824;12.092;2023-12-20T09:38:51;0.43;;;0.43;;
16093;SDS011;8151;47.824;12.092;2023-12-20T09:41:19;0.63;;;0.40;;
16093;SDS011;8151;47.824;12.092;2023-12-20T09:43:48;0.60;;;0.50;;
16093;SDS011;8151;47.824;12.092;2023-12-20T09:46:16;1.10;;;0.40;;
16093;SDS011;8151;47.824;12.092;2023-12-20T09:48:54;1.33;;;0.87;;
16093;SDS011;8151;47.824;12.092;2023-12-20T09:51:22;0.30;;;0.30;;
16093;SDS011;8151;47.824;12.092;2023-12-20T09:53:51;0.37;;;0.30;;
16093;SDS011;8151;47.824;12.092;2023-12-20T09:56:24;0.20;;;0.20;;
16093;SDS011;8151;47.824;12.092;2023-12-20T09:58:53;0.57;;;0.40;;
16093;SDS011;8151;47.824;12.092;2023-12-20T10:01:22;1.67;;;0.80;;
16093;SDS011;8151;47.824;12.092;2023-12-20T10:03:51;0.20;;;0.20;;
16093;SDS011;8151;47.824;12.092;2023-12-20T10:06:25;0.30;;;0.30;;
16093;SDS011;8151;47.824;12.092;2023-12-20T10:08:54;0.10;;;0.10;;
16093;SDS011;8151;47.824;12.092;2023-12-20T10:11:22;0.97;;;0.30;;
16093;SDS011;8151;47.824;12.092;2023-12-20T10:13:51;0.30;;;0.30;;
16093;SDS011;8151;47.824;12.092;2023-12-20T10:16:19;2.97;;;2.20;;
16093;SDS011;8151;47.824;12.092;2023-12-20T10:18:52;0.23;;;0.23;;
16093;SDS011;8151;47.824;12.092;2023-12-20T10:21:23;0.20;;;0.20;;
16093;SDS011;8151;47.824;12.092;2023-12-20T10:23:53;0.10;;;0.10;;
16093;SDS011;8151;47.824;12.092;2023-12-20T10:26:22;0.50;;;0.40;;
16093;SDS011;8151;47.824;12.092;2023-12-20T10:28:52;0.20;;;0.20;;
16093;SDS011;8151;47.824;12.092;2023-12-20T10:31:28;0.40;;;0.30;;
16093;SDS011;8151;47.824;12.092;2023-12-20T10:33:58;0.33;;;0.30;;
16093;SDS011;8151;47.824;12.092;2023-12-20T10:36:30;0.20;;;0.20;;
16093;SDS011;8151;47.824;12.092;2023-12-20T10:39:00;0.20;;;0.20;;
16093;SDS011;8151;47.824;12.092;2023-12-20T10:41:30;0.37;;;0.20;;
16093;SDS011;8151;47.824;12.092;2023-12-20T10:44:01;0.10;;;0.10;;
16093;SDS011;8151;47.824;12.092;2023-12-20T10:46:31;0.10;;;0.10;;
16093;SDS011;8151;47.824;12.092;2023-12-20T10:49:00;0.20;;;0.20;;
16093;SDS011;8151;47.824;12.092;2023-12-20T10:51:32;0.30;;;0.30;;
16093;SDS011;8151;47.824;12.092;2023-12-20T10:54:02;2.50;;;0.20;;
16093;SDS011;8151;47.824;12.092;2023-12-20T10:56:32;0.73;;;0.30;;
16093;SDS011;8151;47.824;12.092;2023-12-20T10:59:02;10.70;;;0.50;;
16093;SDS011;8151;47.824;12.092;2023-12-20T11:01:32;0.10;;;0.10;;
16093;SDS011;8151;47.824;12.092;2023-12-20T11:04:03;0.37;;;0.13;;
16093;SDS011;8151;47.824;12.092;2023-12-20T11:06:43;0.93;;;0.10;;
16093;SDS011;8151;47.824;12.092;2023-12-20T11:09:19;0.80;;;0.40;;
16093;SDS011;8151;47.824;12.092;2023-12-20T11:11:55;0.20;;;0.20;;
16093;SDS011;8151;47.824;12.092;2023-12-20T11:14:31;2.03;;;0.17;;
16093;SDS011;8151;47.824;12.092;2023-12-20T11:17:07;1.50;;;0.43;;
16093;SDS011;8151;47.824;12.092;2023-12-20T11:19:36;0.47;;;0.30;;
16093;SDS011;8151;47.824;12.092;2023-12-20T11:22:09;0.10;;;0.10;;
16093;SDS011;8151;47.824;12.092;2023-12-20T11:24:38;0.37;;;0.30;;
16093;SDS011;8151;47.824;12.092;2023-12-20T11:27:13;0.60;;;0.50;;
16093;SDS011;8151;47.824;12.092;2023-12-20T11:29:41;0.30;;;0.30;;
16093;SDS011;8151;47.824;12.092;2023-12-20T11:34:58;0.70;;;0.63;;
16093;SDS011;8151;47.824;12.092;2023-12-20T11:37:29;0.20;;;0.20;;
16093;SDS011;8151;47.824;12.092;2023-12-20T11:40:00;0.30;;;0.30;;
16093;SDS011;8151;47.824;12.092;2023-12-20T11:42:32;0.63;;;0.40;;
16093;SDS011;8151;47.824;12.092;2023-12-20T11:45:01;1.00;;;0.90;;
16093;SDS011;8151;47.824;12.092;2023-12-20T11:47:31;0.73;;;0.37;;
16093;SDS011;8151;47.824;12.092;2023-12-20T11:50:00;0.73;;;0.47;;
16093;SDS011;8151;47.824;12.092;2023-12-20T11:52:32;0.30;;;0.30;;
16093;SDS011;8151;47.824;12.092;2023-12-20T11:55:00;0.43;;;0.40;;
16093;SDS011;8151;47.824;12.092;2023-12-20T11:57:30;0.40;;;0.30;;
16093;SDS011;8151;47.824;12.092;2023-12-20T11:59:59;2.20;;;1.10;;
16093;SDS011;8151;47.824;12.092;2023-12-20T12:02:27;2.63;;;1.23;;
16093;SDS011;8151;47.824;12.092;2023-12-20T12:04:56;5.27;;;2.57;;
16093;SDS011;8151;47.824;12.092;2023-12-20T12:07:25;4.17;;;1.40;;
16093;SDS011;8151;47.824;12.092;2023-12-20T12:09:55;4.73;;;2.63;;
16093;SDS011;8151;47.824;12.092;2023-12-20T12:12:24;4.17;;;1.93;;
16093;SDS011;8151;47.824;12.092;2023-12-20T12:14:54;2.30;;;1.60;;
16093;SDS011;8151;47.824;12.092;2023-12-20T12:17:23;2.23;;;1.43;;
16093;SDS011;8151;47.824;12.092;2023-12-20T12:19:52;1.60;;;0.40;;
16093;SDS011;8151;47.824;12.092;2023-12-20T12:22:30;0.50;;;0.50;;
16093;SDS011;8151;47.824;12.092;2023-12-20T12:25:09;0.73;;;0.43;;
16093;SDS011;8151;47.824;12.092;2023-12-20T12:27:39;1.13;;;0.40;;
16093;SDS011;8151;47.824;12.092;2023-12-20T12:30:09;0.47;;;0.47;;
16093;SDS011;8151;47.824;12.092;2023-12-20T12:32:39;0.30;;;0.27;;
16093;SDS011;8151;47.824;12.092;2023-12-20T12:35:09;0.30;;;0.30;;
16093;SDS011;8151;47.824;12.092;2023-12-20T12:37:38;1.53;;;0.40;;
16093;SDS011;8151;47.824;12.092;2023-12-20T12:40:11;4.43;;;0.40;;
16093;SDS011;8151;47.824;12.092;2023-12-20T12:42:40;0.80;;;0.40;;
16093;SDS011;8151;47.824;12.092;2023-12-20T12:45:10;0.30;;;0.30;;
16093;SDS011;8151;47.824;12.092;2023-12-20T12:47:39;0.53;;;0.33;;
16093;SDS011;8151;47.824;12.092;2023-12-20T12:50:08;0.30;;;0.30;;
16093;SDS011;8151;47.824;12.092;2023-12-20T12:52:37;0.47;;;0.30;;
16093;SDS011;8151;47.824;12.092;2023-12-20T12:55:06;0.30;;;0.30;;
16093;SDS011;8151;47.824;12.092;2023-12-20T12:57:36;1.17;;;0.40;;
16093;SDS011;8151;47.824;12.092;2023-12-20T13:00:05;4.93;;;3.33;;
16093;SDS011;8151;47.824;12.092;2023-12-20T13:02:36;3.70;;;3.03;;
16093;SDS011;8151;47.824;12.092;2023-12-20T13:05:05;0.57;;;0.57;;
16093;SDS011;8151;47.824;12.092;2023-12-20T13:07:35;0.40;;;0.30;;
16093;SDS011;8151;47.824;12.092;2023-12-20T13:10:04;1.07;;;1.00;;
16093;SDS011;8151;47.824;12.092;2023-12-20T13:12:34;0.80;;;0.80;;
16093;SDS011;8151;47.824;12.092;2023-12-20T13:15:04;3.07;;;1.37;;
16093;SDS011;8151;47.824;12.092;2023-12-20T13:17:32;1.77;;;0.90;;
16093;SDS011;8151;47.824;12.092;2023-12-20T13:20:01;2.00;;;1.40;;
16093;SDS011;8151;47.824;12.092;2023-12-20T13:22:30;4.53;;;1.60;;
16093;SDS011;8151;47.824;12.092;2023-12-20T13:24:59;1.80;;;1.53;;
16093;SDS011;8151;47.824;12.092;2023-12-20T13:27:29;1.43;;;1.20;;
16093;SDS011;8151;47.824;12.092;2023-12-20T13:29:59;0.63;;;0.63;;
16093;SDS011;8151;47.824;12.092;2023-12-20T13:32:28;1.70;;;1.30;;
16093;SDS011;8151;47.824;12.092;2023-12-20T13:34:57;1.80;;;0.90;;
16093;SDS011;8151;47.824;12.092;2023-12-20T13:37:26;0.90;;;0.90;;
16093;SDS011;8151;47.824;12.092;2023-12-20T13:39:54;0.83;;;0.60;;
16093;SDS011;8151;47.824;12.092;2023-12-20T13:42:23;0.33;;;0.33;;
16093;SDS011;8151;47.824;12.092;2023-12-20T13:44:53;0.60;;;0.60;;
16093;SDS011;8151;47.824;12.092;2023-12-20T13:47:24;0.40;;;0.33;;
16093;SDS011;8151;47.824;12.092;2023-12-20T13:49:52;0.30;;;0.30;;
16093;SDS011;8151;47.824;12.092;2023-12-20T13:52:21;0.20;;;0.20;;
16093;SDS011;8151;47.824;12.092;2023-12-20T13:54:51;0.63;;;0.60;;
16093;SDS011;8151;47.824;12.092;2023-12-20T13:57:19;0.97;;;0.43;;
16093;SDS011;8151;47.824;12.092;2023-12-20T14:00:08;0.37;;;0.37;;
16093;SDS011;8151;47.824;12.092;2023-12-20T14:02:43;0.60;;;0.33;;
16093;SDS011;8151;47.824;12.092;2023-12-20T14:05:13;0.50;;;0.40;;
16093;SDS011;8151;47.824;12.092;2023-12-20T14:07:44;0.40;;;0.40;;
16093;SDS011;8151;47.824;12.092;2023-12-20T14:10:13;0.47;;;0.47;;
16093;SDS011;8151;47.824;12.092;2023-12-20T14:12:42;0.37;;;0.37;;
16093;SDS011;8151;47.824;12.092;2023-12-20T14:15:12;0.20;;;0.20;;
16093;SDS011;8151;47.824;12.092;2023-12-20T14:17:40;1.60;;;0.47;;
16093;SDS011;8151;47.824;12.092;2023-12-20T14:20:11;0.47;;;0.40;;
16093;SDS011;8151;47.824;12.092;2023-12-20T14:22:41;0.20;;;0.20;;
16093;SDS011;8151;47.824;12.092;2023-12-20T14:25:11;0.47;;;0.47;;
16093;SDS011;8151;47.824;12.092;2023-12-20T14:27:40;2.73;;;2.13;;
16093;SDS011;8151;47.824;12.092;2023-12-20T14:30:11;2.43;;;1.80;;
16093;SDS011;8151;47.824;12.092;2023-12-20T14:32:41;0.57;;;0.57;;
16093;SDS011;8151;47.824;12.092;2023-12-20T14:35:11;1.47;;;1.20;;
16093;SDS011;8151;47.824;12.092;2023-12-20T14:37:40;0.73;;;0.60;;
16093;SDS011;8151;47.824;12.092;2023-12-20T14:40:09;0.87;;;0.87;;
16093;SDS011;8151;47.824;12.092;2023-12-20T14:42:42;1.00;;;0.90;;
16093;SDS011;8151;47.824;12.092;2023-12-20T14:45:11;0.70;;;0.70;;
16093;SDS011;8151;47.824;12.092;2023-12-20T14:47:41;1.50;;;0.87;;
16093;SDS011;8151;47.824;12.092;2023-12-20T14:50:10;1.20;;;1.10;;
16093;SDS011;8151;47.824;12.092;2023-12-20T14:52:45;1.40;;;1.03;;
16093;SDS011;8151;47.824;12.092;2023-12-20T14:55:14;1.47;;;1.37;;
16093;SDS011;8151;47.824;12.092;2023-12-20T14:57:42;1.13;;;1.03;;
16093;SDS011;8151;47.824;12.092;2023-12-20T15:00:11;0.93;;;0.90;;
16093;SDS011;8151;47.824;12.092;2023-12-20T15:02:43;1.10;;;1.00;;